Time;durP1;ratioP1;P1;durP2;ratioP2;P2;SDS_P1;SDS_P2;PMS_P1;PMS_P2;Temp;Humidity;BMP_temperature;BMP_pressure;BME280_temperature;BME280_humidity;BME280_pressure;Samples;Min_cycle;Max_cycle;Signal;HPM_P1;HPM_P2
2022/01/30 00:00:37;;;;;;;0.98;0.98;;;8.00;99.90;;;;;;5095316;28;20210;-82
2022/01/30 00:03:07;;;;;;;0.65;0.65;;;8.00;99.90;;;;;;5095941;28;20204;-82
2022/01/30 00:05:35;;;;;;;0.43;0.43;;;8.00;99.90;;;;;;5096268;28;20233;-82
2022/01/30 00:08:04;;;;;;;0.90;0.90;;;7.90;99.90;;;;;;5096051;28;20367;-82
2022/01/30 00:10:37;;;;;;;12.27;1.15;;;7.90;99.90;;;;;;5095692;28;20204;-82
2022/01/30 00:13:08;;;;;;;0.60;0.60;;;8.00;99.90;;;;;;5095660;28;20201;-82
2022/01/30 00:15:41;;;;;;;0.70;0.70;;;8.00;99.90;;;;;;5095333;28;20307;-82
2022/01/30 00:18:30;;;;;;;1.13;1.02;;;8.00;99.90;;;;;;5095836;28;20204;-82
2022/01/30 00:21:06;;;;;;;1.45;1.00;;;8.00;99.90;;;;;;5095208;28;20214;-82
2022/01/30 00:23:39;;;;;;;3.03;0.82;;;8.00;99.90;;;;;;5095923;28;20370;-82
2022/01/30 00:26:09;;;;;;;1.20;1.10;;;7.90;99.90;;;;;;5095775;28;20224;-82
2022/01/30 00:28:37;;;;;;;1.70;1.30;;;8.00;99.90;;;;;;5095216;28;20212;-82
2022/01/30 00:31:06;;;;;;;0.80;0.80;;;7.90;99.90;;;;;;5095345;28;20207;-82
2022/01/30 00:33:35;;;;;;;0.80;0.80;;;7.90;99.90;;;;;;5095357;28;20210;-82
2022/01/30 00:36:05;;;;;;;1.17;1.08;;;7.90;99.90;;;;;;5095465;28;20228;-82
2022/01/30 00:38:34;;;;;;;0.90;0.90;;;7.90;99.90;;;;;;5095349;28;20251;-82
2022/01/30 00:41:02;;;;;;;1.08;1.05;;;7.90;99.90;;;;;;5095069;28;20208;-82
2022/01/30 00:43:31;;;;;;;0.85;0.75;;;7.90;99.90;;;;;;5095509;28;20228;-82
2022/01/30 00:45:59;;;;;;;1.50;1.20;;;7.90;99.90;;;;;;5095145;28;20277;-82
2022/01/30 00:48:28;;;;;;;1.75;1.17;;;7.90;99.90;;;;;;5095596;28;20208;-82
2022/01/30 00:50:57;;;;;;;0.90;0.90;;;8.00;99.90;;;;;;5094928;28;20241;-83
2022/01/30 00:53:26;;;;;;;0.73;0.73;;;8.00;99.90;;;;;;5095569;28;20212;-82
2022/01/30 00:55:54;;;;;;;1.05;1.05;;;7.90;99.90;;;;;;5093974;28;20303;-82
2022/01/30 00:58:22;;;;;;;1.13;0.80;;;8.00;99.90;;;;;;5095273;28;20212;-82
2022/01/30 01:00:51;;;;;;;1.40;1.30;;;8.00;99.90;;;;;;5094797;28;20208;-81
2022/01/30 01:03:19;;;;;;;0.77;0.77;;;7.90;99.90;;;;;;5095336;28;20219;-82
2022/01/30 01:05:49;;;;;;;0.55;0.55;;;8.10;99.90;;;;;;5095709;28;20219;-82
2022/01/30 01:08:28;;;;;;;1.15;0.80;;;8.10;99.90;;;;;;5095275;28;20308;-82
2022/01/30 01:11:01;;;;;;;0.77;0.77;;;8.10;99.90;;;;;;5095129;28;20208;-82
2022/01/30 01:24:29;;;;;;;0.57;0.57;;;8.40;99.90;;;;;;5094759;28;20200;-82
2022/01/30 01:26:57;;;;;;;8.50;0.88;;;8.40;99.90;;;;;;5094695;28;20220;-82
2022/01/30 01:29:25;;;;;;;1.70;1.20;;;8.40;99.90;;;;;;5094707;28;20204;-82
2022/01/30 01:31:53;;;;;;;0.60;0.60;;;8.40;99.90;;;;;;5094737;28;20212;-82
2022/01/30 01:34:32;;;;;;;0.88;0.88;;;8.40;99.90;;;;;;5094675;28;20210;-82
2022/01/30 01:37:00;;;;;;;0.68;0.68;;;8.30;99.90;;;;;;5094337;28;20220;-82
2022/01/30 01:39:30;;;;;;;0.90;0.82;;;8.30;99.90;;;;;;5094258;28;20212;-82
2022/01/30 01:41:59;;;;;;;2.03;1.10;;;8.30;99.90;;;;;;5094194;28;20283;-82
2022/01/30 01:44:34;;;;;;;1.08;1.08;;;8.30;99.90;;;;;;5094357;28;20207;-82
2022/01/30 01:47:03;;;;;;;0.88;0.88;;;8.30;99.90;;;;;;5094111;28;20200;-82
2022/01/30 01:49:33;;;;;;;1.15;0.80;;;8.30;99.90;;;;;;5093710;28;20239;-82
2022/01/30 01:52:18;;;;;;;1.25;0.98;;;8.30;99.90;;;;;;5094782;28;20228;-82
2022/01/30 01:54:49;;;;;;;0.77;0.77;;;8.30;99.90;;;;;;5094175;28;20204;-82
2022/01/30 01:57:18;;;;;;;0.85;0.85;;;8.30;99.90;;;;;;5094159;28;20224;-83
2022/01/30 01:59:46;;;;;;;0.95;0.95;;;8.40;99.90;;;;;;5093361;28;20204;-82
2022/01/30 02:02:15;;;;;;;1.17;1.08;;;8.40;99.90;;;;;;5094096;28;20207;-82
2022/01/30 02:04:45;;;;;;;1.40;1.15;;;8.30;99.90;;;;;;5093703;28;20214;-82
2022/01/30 02:07:51;;;;;;;1.23;1.00;;;8.40;99.90;;;;;;5093886;28;20207;-82
2022/01/30 02:10:27;;;;;;;0.75;0.75;;;8.30;99.90;;;;;;5093314;28;20277;-82
2022/01/30 02:13:09;;;;;;;0.88;0.88;;;8.20;99.90;;;;;;5093799;28;20204;-82
2022/01/30 02:23:56;;;;;;;1.00;1.00;;;8.20;99.90;;;;;;5093447;28;20346;-82
2022/01/30 02:24:15;;;;;;;0.65;0.65;;;8.40;99.90;;;;;;5094159;28;20196;-82
2022/01/30 02:26:46;;;;;;;1.15;1.00;;;8.40;99.90;;;;;;5093427;28;20228;-82
2022/01/30 02:29:15;;;;;;;1.55;1.00;;;8.40;99.90;;;;;;5092986;28;20212;-82
2022/01/30 02:31:43;;;;;;;0.93;0.80;;;8.40;99.90;;;;;;5093514;28;20236;-82
2022/01/30 02:34:11;;;;;;;1.33;0.95;;;8.30;99.90;;;;;;5093521;28;20201;-82
2022/01/30 02:36:47;;;;;;;1.92;0.95;;;8.40;99.90;;;;;;5093451;28;20303;-82
2022/01/30 02:39:18;;;;;;;0.90;0.77;;;8.50;99.90;;;;;;5092784;28;20227;-82
2022/01/30 02:41:47;;;;;;;0.88;0.82;;;8.40;99.90;;;;;;5093595;28;20210;-82
2022/01/30 02:44:20;;;;;;;0.90;0.90;;;8.40;99.90;;;;;;5093124;28;20204;-82
2022/01/30 02:46:51;;;;;;;1.00;0.88;;;8.40;99.90;;;;;;5092734;28;20231;-82
2022/01/30 02:49:43;;;;;;;0.93;0.93;;;8.40;99.90;;;;;;5092837;28;20285;-82
2022/01/30 02:52:12;;;;;;;0.82;0.82;;;8.40;99.90;;;;;;5093580;28;20280;-82
2022/01/30 02:54:42;;;;;;;0.60;0.60;;;8.50;99.90;;;;;;5093052;28;20264;-82
2022/01/30 02:57:10;;;;;;;1.17;1.00;;;8.50;99.90;;;;;;5092737;28;20231;-82
2022/01/30 02:59:39;;;;;;;0.80;0.80;;;8.40;99.90;;;;;;5092525;28;20206;-81
2022/01/30 03:02:07;;;;;;;0.80;0.80;;;8.40;99.90;;;;;;5093086;28;20214;-82
2022/01/30 03:04:36;;;;;;;0.47;0.47;;;8.40;99.90;;;;;;5093036;28;20287;-82
2022/01/30 03:07:05;;;;;;;1.10;0.60;;;8.40;99.90;;;;;;5092862;28;20287;-82
2022/01/30 03:09:33;;;;;;;0.55;0.55;;;8.30;99.90;;;;;;5092577;28;20242;-82
2022/01/30 03:12:03;;;;;;;1.10;1.00;;;8.30;99.90;;;;;;5093102;28;20216;-82
2022/01/30 03:14:32;;;;;;;0.90;0.77;;;8.30;99.90;;;;;;5092645;28;20292;-82
2022/01/30 03:17:00;;;;;;;0.88;0.88;;;8.40;99.90;;;;;;5092695;28;20204;-82
2022/01/30 03:19:28;;;;;;;0.85;0.77;;;8.40;99.90;;;;;;5091502;28;20243;-82
2022/01/30 03:21:57;;;;;;;0.80;0.80;;;8.30;99.90;;;;;;5093007;28;20233;-82
2022/01/30 03:24:25;;;;;;;0.63;0.63;;;8.40;99.90;;;;;;5092535;28;20209;-82
2022/01/30 03:26:54;;;;;;;0.40;0.40;;;8.30;99.90;;;;;;5092350;28;20242;-82
2022/01/30 03:29:24;;;;;;;0.50;0.50;;;8.30;99.90;;;;;;5092080;28;20219;-82
2022/01/30 03:31:52;;;;;;;0.80;0.80;;;8.30;99.90;;;;;;5092663;28;20214;-82
2022/01/30 03:34:21;;;;;;;0.77;0.77;;;8.40;99.90;;;;;;5092742;28;20204;-82
2022/01/30 03:36:49;;;;;;;0.60;0.60;;;8.40;99.90;;;;;;5092614;28;20299;-82
2022/01/30 03:39:17;;;;;;;0.80;0.80;;;8.40;99.90;;;;;;5092025;28;20225;-82
2022/01/30 03:41:46;;;;;;;2.10;0.90;;;8.40;99.90;;;;;;5092253;28;20237;-82
2022/01/30 03:44:14;;;;;;;0.82;0.80;;;8.40;99.90;;;;;;5092711;28;20208;-82
2022/01/30 03:46:44;;;;;;;0.90;0.90;;;8.30;99.90;;;;;;5092405;28;20232;-82
2022/01/30 03:49:23;;;;;;;0.55;0.55;;;8.40;99.90;;;;;;5092097;28;20208;-82
2022/01/30 03:51:51;;;;;;;0.60;0.60;;;8.40;99.90;;;;;;5092425;28;20204;-82
2022/01/30 03:54:19;;;;;;;0.52;0.52;;;8.40;99.90;;;;;;5092282;28;20206;-82
2022/01/30 03:56:48;;;;;;;0.40;0.38;;;8.40;99.90;;;;;;5092216;28;20224;-82
2022/01/30 03:59:16;;;;;;;0.35;0.35;;;8.40;99.90;;;;;;5091300;28;20220;-82
2022/01/30 04:01:46;;;;;;;0.80;0.80;;;8.40;99.90;;;;;;5092485;28;20204;-82
2022/01/30 04:04:14;;;;;;;0.45;0.45;;;8.40;99.90;;;;;;5092519;28;20287;-82
2022/01/30 04:06:43;;;;;;;0.85;0.80;;;8.40;99.90;;;;;;5091760;28;20220;-82
2022/01/30 04:09:12;;;;;;;0.60;0.60;;;8.30;99.90;;;;;;5092034;28;20196;-82
2022/01/30 04:11:40;;;;;;;0.60;0.60;;;8.40;99.90;;;;;;5092146;28;20200;-82
2022/01/30 04:14:10;;;;;;;0.68;0.68;;;8.40;99.90;;;;;;5092251;28;20215;-81
2022/01/30 04:16:38;;;;;;;0.80;0.80;;;8.40;99.90;;;;;;5091691;28;20225;-82
2022/01/30 04:19:08;;;;;;;0.55;0.55;;;8.40;99.90;;;;;;5091207;28;20220;-82
2022/01/30 04:21:37;;;;;;;0.68;0.68;;;8.30;99.90;;;;;;5091718;28;20207;-82
2022/01/30 04:24:07;;;;;;;0.52;0.52;;;8.30;99.90;;;;;;5092304;28;20223;-81
2022/01/30 04:26:37;;;;;;;0.30;0.30;;;8.30;99.90;;;;;;5092087;28;20224;-82
2022/01/30 04:29:06;;;;;;;0.50;0.50;;;8.30;99.90;;;;;;5091504;28;20269;-82
2022/01/30 04:31:34;;;;;;;0.30;0.30;;;8.20;99.90;;;;;;5095697;28;20288;-82
2022/01/30 04:34:03;;;;;;;0.63;0.63;;;8.20;99.90;;;;;;5095801;28;20277;-82
2022/01/30 04:36:39;;;;;;;0.50;0.50;;;8.20;99.90;;;;;;5095824;28;20303;-82
2022/01/30 04:39:15;;;;;;;0.45;0.45;;;8.20;99.90;;;;;;5095170;28;20239;-82
2022/01/30 04:42:08;;;;;;;0.43;0.43;;;8.20;99.90;;;;;;5095567;28;20295;-82
2022/01/30 04:53:12;;;;;;;0.40;0.40;;;8.20;99.90;;;;;;5095074;28;20200;-81
2022/01/30 04:58:31;;;;;;;0.30;0.30;;;8.10;99.90;;;;;;5094971;28;20232;-82
2022/01/30 05:01:08;;;;;;;0.38;0.38;;;8.00;99.90;;;;;;5094779;28;20214;-82
2022/01/30 05:03:50;;;;;;;0.25;0.25;;;7.80;99.90;;;;;;5095634;28;20238;-82
2022/01/30 05:06:30;;;;;;;0.38;0.38;;;7.60;99.90;;;;;;5095173;28;20307;-82
2022/01/30 05:09:00;;;;;;;0.32;0.32;;;7.40;99.90;;;;;;5094886;28;20214;-82
2022/01/30 05:11:28;;;;;;;0.30;0.30;;;7.40;99.90;;;;;;5094907;28;20208;-81
2022/01/30 05:13:57;;;;;;;0.20;0.20;;;7.30;99.90;;;;;;5094767;28;20214;-84
2022/01/30 05:16:26;;;;;;;0.28;0.28;;;7.30;99.90;;;;;;5094935;28;20235;-82
2022/01/30 05:18:56;;;;;;;0.10;0.10;;;7.30;99.90;;;;;;5094607;28;20266;-82
2022/01/30 05:21:24;;;;;;;0.20;0.20;;;7.30;99.90;;;;;;5094768;28;20216;-82
2022/01/30 05:23:53;;;;;;;0.13;0.13;;;7.30;99.90;;;;;;5095202;28;20208;-82
2022/01/30 05:26:25;;;;;;;0.32;0.32;;;7.40;99.90;;;;;;5094716;28;20231;-82
2022/01/30 05:28:54;;;;;;;0.20;0.20;;;7.40;99.90;;;;;;5094433;28;20211;-82
2022/01/30 05:31:23;;;;;;;0.22;0.22;;;7.40;99.90;;;;;;5094782;28;20212;-82
2022/01/30 05:33:52;;;;;;;0.22;0.22;;;7.50;99.90;;;;;;5094714;28;20296;-82
2022/01/30 05:36:22;;;;;;;0.05;0.05;;;7.50;99.90;;;;;;5094471;28;20225;-82
2022/01/30 05:38:51;;;;;;;0.22;0.22;;;7.50;99.90;;;;;;5094150;28;20224;-83
2022/01/30 05:41:21;;;;;;;0.40;0.40;;;7.50;99.90;;;;;;5094084;28;20204;-83
2022/01/30 05:43:55;;;;;;;0.25;0.25;;;7.50;99.90;;;;;;5094387;28;20260;-82
2022/01/30 05:46:31;;;;;;;0.38;0.38;;;7.60;99.90;;;;;;5094173;28;20220;-83
2022/01/30 05:49:02;;;;;;;0.32;0.32;;;7.60;99.90;;;;;;5094117;28;20208;-82
2022/01/30 05:51:30;;;;;;;0.22;0.22;;;7.60;99.90;;;;;;5094393;28;20208;-82
2022/01/30 05:53:58;;;;;;;1.27;0.73;;;7.60;99.90;;;;;;5094023;28;20208;-82
2022/01/30 05:56:27;;;;;;;0.55;0.55;;;7.60;99.90;;;;;;5093832;28;20287;-82
2022/01/30 05:58:56;;;;;;;1.40;0.85;;;7.50;99.90;;;;;;5093241;28;20231;-82
2022/01/30 06:01:25;;;;;;;0.65;0.57;;;7.50;99.90;;;;;;5093901;28;20204;-82
2022/01/30 06:03:53;;;;;;;0.73;0.73;;;7.50;99.90;;;;;;5094077;28;20234;-82
2022/01/30 06:06:22;;;;;;;1.02;0.88;;;7.50;99.90;;;;;;5094234;28;20234;-82
2022/01/30 06:09:01;;;;;;;4.63;0.90;;;7.40;99.90;;;;;;5093535;28;20203;-82
2022/01/30 06:11:29;;;;;;;2.25;1.10;;;7.40;99.90;;;;;;5093769;28;20208;-82
2022/01/30 06:13:59;;;;;;;1.42;0.80;;;7.40;99.90;;;;;;5093415;28;20299;-82
2022/01/30 06:16:27;;;;;;;1.70;0.65;;;7.40;99.90;;;;;;5093525;28;20255;-82
2022/01/30 06:18:55;;;;;;;0.88;0.80;;;7.40;99.90;;;;;;5093357;28;20359;-82
2022/01/30 06:21:23;;;;;;;1.42;1.08;;;7.50;99.90;;;;;;5093783;28;20211;-82
2022/01/30 06:23:52;;;;;;;0.80;0.80;;;7.50;99.90;;;;;;5093389;28;20210;-82
2022/01/30 06:26:20;;;;;;;1.15;1.00;;;7.50;99.90;;;;;;5093430;28;20251;-82
2022/01/30 06:28:48;;;;;;;4.25;1.10;;;7.50;99.90;;;;;;5093018;28;20204;-82
2022/01/30 06:31:18;;;;;;;8.02;1.40;;;7.60;99.90;;;;;;5093615;28;20287;-82
2022/01/30 06:33:46;;;;;;;1.58;0.98;;;7.60;99.90;;;;;;5093348;28;20243;-82
2022/01/30 06:36:15;;;;;;;1.77;1.65;;;7.60;99.90;;;;;;5093259;28;20238;-82
2022/01/30 06:38:43;;;;;;;1.42;1.10;;;7.60;99.90;;;;;;5092808;28;20218;-82
2022/01/30 06:41:11;;;;;;;2.47;1.15;;;7.60;99.90;;;;;;5092688;28;20219;-82
2022/01/30 06:43:40;;;;;;;0.77;0.77;;;7.60;99.90;;;;;;5093413;28;20197;-82
2022/01/30 06:46:10;;;;;;;2.58;1.50;;;7.50;99.90;;;;;;5093509;28;20232;-82
2022/01/30 06:48:40;;;;;;;1.35;1.25;;;7.60;99.90;;;;;;5092997;28;20208;-82
2022/01/30 06:51:09;;;;;;;10.52;1.50;;;7.60;99.90;;;;;;5092881;28;20250;-82
2022/01/30 06:53:37;;;;;;;1.75;0.90;;;7.50;99.90;;;;;;5092111;28;20214;-82
2022/01/30 06:56:07;;;;;;;1.00;0.85;;;7.40;99.90;;;;;;5092818;28;20224;-82
2022/01/30 06:58:35;;;;;;;1.40;1.15;;;7.40;99.90;;;;;;5093116;28;20239;-82
2022/01/30 07:01:04;;;;;;;0.82;0.80;;;7.40;99.90;;;;;;5092434;28;20231;-82
2022/01/30 07:03:32;;;;;;;0.95;0.90;;;7.30;99.90;;;;;;5092942;28;20211;-82
2022/01/30 07:06:02;;;;;;;1.10;1.10;;;7.30;99.90;;;;;;5093069;28;20303;-82
2022/01/30 07:08:30;;;;;;;1.15;1.05;;;7.20;99.90;;;;;;5092582;28;20208;-82
2022/01/30 07:10:59;;;;;;;1.05;0.95;;;7.20;99.90;;;;;;5092340;28;20218;-82
2022/01/30 07:13:27;;;;;;;3.53;1.17;;;7.30;99.90;;;;;;5093165;28;20206;-82
2022/01/30 07:15:55;;;;;;;0.85;0.82;;;7.30;99.90;;;;;;5092934;28;20223;-82
2022/01/30 07:18:24;;;;;;;1.20;1.10;;;7.40;99.90;;;;;;5092681;28;20288;-82
2022/01/30 07:20:52;;;;;;;0.90;0.90;;;7.40;99.90;;;;;;5091813;28;20302;-82
2022/01/30 07:23:22;;;;;;;1.33;1.20;;;7.40;99.90;;;;;;5092696;28;20200;-82
2022/01/30 07:25:50;;;;;;;2.25;1.58;;;7.50;99.90;;;;;;5093035;28;20235;-82
2022/01/30 07:28:18;;;;;;;1.15;0.95;;;7.60;99.90;;;;;;5092949;28;20208;-82
2022/01/30 07:30:47;;;;;;;1.50;1.08;;;7.60;99.90;;;;;;5092009;28;20204;-82
2022/01/30 07:33:15;;;;;;;4.80;1.60;;;7.60;99.90;;;;;;5092602;28;20215;-82
2022/01/30 07:35:44;;;;;;;1.02;0.93;;;7.60;99.90;;;;;;5092654;28;20235;-82
2022/01/30 07:38:13;;;;;;;4.03;1.25;;;7.50;99.90;;;;;;5092552;28;20228;-82
2022/01/30 07:40:43;;;;;;;1.60;1.08;;;7.50;99.90;;;;;;5091683;28;20224;-82
2022/01/30 07:43:11;;;;;;;3.80;1.27;;;7.50;99.90;;;;;;5092364;28;20288;-82
2022/01/30 07:45:39;;;;;;;1.20;1.08;;;7.60;99.90;;;;;;5091849;28;20280;-82
2022/01/30 07:48:08;;;;;;;2.33;1.45;;;7.60;99.90;;;;;;5092715;28;20203;-82
2022/01/30 07:50:36;;;;;;;1.33;0.90;;;7.70;99.90;;;;;;5091797;28;20201;-82
2022/01/30 07:53:04;;;;;;;1.05;0.95;;;7.70;99.90;;;;;;5092533;28;20205;-82
2022/01/30 07:55:32;;;;;;;2.55;0.93;;;7.60;99.90;;;;;;5092129;28;20228;-82
2022/01/30 07:58:02;;;;;;;1.38;1.15;;;7.70;99.90;;;;;;5092085;28;20300;-82
2022/01/30 08:00:30;;;;;;;1.90;1.27;;;7.80;99.90;;;;;;5091594;28;20312;-83
2022/01/30 08:02:59;;;;;;;0.80;0.77;;;7.80;99.90;;;;;;5092270;28;20269;-82
2022/01/30 08:05:27;;;;;;;4.00;1.08;;;7.90;99.90;;;;;;5094430;28;20220;-82
2022/01/30 08:07:56;;;;;;;2.45;1.42;;;7.90;99.90;;;;;;5096269;28;20291;-82
2022/01/30 08:10:24;;;;;;;1.88;1.20;;;7.90;99.90;;;;;;5095433;28;20236;-82
2022/01/30 08:12:52;;;;;;;0.98;0.90;;;7.90;99.90;;;;;;5096299;28;20211;-82
2022/01/30 08:15:22;;;;;;;1.30;1.02;;;7.90;99.90;;;;;;5095750;28;20316;-82
2022/01/30 08:17:51;;;;;;;0.65;0.65;;;8.00;99.90;;;;;;5096052;28;20254;-82
2022/01/30 08:20:20;;;;;;;2.58;1.10;;;8.00;99.90;;;;;;5095418;28;20247;-82
2022/01/30 08:22:51;;;;;;;2.28;1.67;;;8.10;99.90;;;;;;5095906;28;20204;-82
2022/01/30 08:25:22;;;;;;;2.20;1.20;;;8.10;99.90;;;;;;5095688;28;20220;-82
2022/01/30 08:27:51;;;;;;;0.90;0.90;;;8.10;99.90;;;;;;5096133;28;20247;-82
2022/01/30 08:30:19;;;;;;;1.98;1.27;;;8.10;99.90;;;;;;5095029;28;20201;-82
2022/01/30 08:32:51;;;;;;;1.10;1.00;;;8.00;99.90;;;;;;5095657;28;20300;-82
2022/01/30 08:35:20;;;;;;;1.13;1.02;;;8.00;99.90;;;;;;5095453;28;20244;-82
2022/01/30 08:37:49;;;;;;;1.50;1.35;;;7.90;99.40;;;;;;5095858;28;20201;-82
2022/01/30 08:40:19;;;;;;;0.95;0.95;;;7.90;99.90;;;;;;5095116;28;20312;-82
2022/01/30 08:42:49;;;;;;;3.83;1.67;;;7.90;99.30;;;;;;5095491;28;20260;-82
2022/01/30 08:45:19;;;;;;;0.98;0.90;;;8.00;98.70;;;;;;5095249;28;20316;-82
2022/01/30 08:47:50;;;;;;;0.60;0.60;;;8.00;98.20;;;;;;5095409;28;20208;-82
2022/01/30 08:50:20;;;;;;;1.88;1.23;;;8.00;97.60;;;;;;5094911;28;20211;-82
2022/01/30 08:52:49;;;;;;;17.15;1.45;;;8.10;97.10;;;;;;5095342;28;20317;-82
2022/01/30 08:55:18;;;;;;;1.75;1.10;;;8.10;96.40;;;;;;5095360;28;20220;-82
2022/01/30 08:57:47;;;;;;;0.88;0.82;;;8.10;95.90;;;;;;5095168;28;20401;-82
2022/01/30 09:00:17;;;;;;;2.30;1.33;;;8.10;94.80;;;;;;5094349;28;20204;-82
2022/01/30 09:02:45;;;;;;;3.50;1.73;;;8.20;94.80;;;;;;5095347;28;20211;-82
2022/01/30 09:05:15;;;;;;;1.42;1.23;;;8.30;93.70;;;;;;5095052;28;20236;-82
2022/01/30 09:07:43;;;;;;;9.98;1.30;;;8.40;93.90;;;;;;5094994;28;20287;-81
2022/01/30 09:10:13;;;;;;;1.25;1.08;;;8.30;92.30;;;;;;5094609;28;20218;-81
2022/01/30 09:12:41;;;;;;;1.17;0.93;;;8.30;91.90;;;;;;5095072;28;20214;-82
2022/01/30 09:15:14;;;;;;;1.10;1.02;;;8.30;92.80;;;;;;5094627;28;20224;-82
2022/01/30 09:17:42;;;;;;;1.38;1.17;;;8.40;91.80;;;;;;5094166;28;20208;-82
2022/01/30 09:20:12;;;;;;;1.45;1.10;;;8.30;91.80;;;;;;5094278;28;20204;-81
2022/01/30 09:22:43;;;;;;;1.10;1.00;;;8.40;90.40;;;;;;5094799;28;20218;-82
2022/01/30 09:25:12;;;;;;;0.88;0.88;;;8.40;89.80;;;;;;5094636;28;20312;-82
2022/01/30 09:27:43;;;;;;;2.80;1.08;;;8.40;88.90;;;;;;5094386;28;20232;-82
2022/01/30 09:30:13;;;;;;;0.93;0.93;;;8.60;89.60;;;;;;5093993;28;20296;-82
2022/01/30 09:32:43;;;;;;;2.55;1.58;;;8.70;88.50;;;;;;5094839;28;20201;-82
2022/01/30 09:35:11;;;;;;;2.50;1.30;;;8.70;87.60;;;;;;5094437;28;20290;-82
2022/01/30 09:37:40;;;;;;;7.20;1.83;;;8.70;88.10;;;;;;5094497;28;20200;-82
2022/01/30 09:40:10;;;;;;;1.17;1.02;;;8.70;87.80;;;;;;5093755;28;20231;-82
2022/01/30 09:42:43;;;;;;;1.95;1.13;;;8.60;87.10;;;;;;5094724;28;20315;-82
2022/01/30 09:45:13;;;;;;;4.70;1.38;;;8.60;88.50;;;;;;5094502;28;20217;-82
2022/01/30 09:47:42;;;;;;;1.25;1.15;;;8.60;89.20;;;;;;5094408;28;20269;-82
2022/01/30 09:50:11;;;;;;;2.05;1.10;;;8.60;88.80;;;;;;5093737;28;20250;-82
2022/01/30 09:52:42;;;;;;;1.05;1.05;;;8.70;90.30;;;;;;5094158;28;20200;-81
2022/01/30 09:55:12;;;;;;;4.05;1.50;;;8.70;89.80;;;;;;5094313;28;20248;-82
2022/01/30 09:57:41;;;;;;;1.45;1.23;;;8.80;89.20;;;;;;5094161;28;20214;-82
2022/01/30 10:00:11;;;;;;;2.20;1.60;;;8.80;89.30;;;;;;5093697;28;20272;-82
2022/01/30 10:02:42;;;;;;;3.65;1.73;;;8.80;88.30;;;;;;5093761;28;20306;-82
2022/01/30 10:05:12;;;;;;;1.48;1.38;;;8.90;88.20;;;;;;5093736;28;20229;-82
2022/01/30 10:07:42;;;;;;;1.08;1.00;;;8.90;87.40;;;;;;5094031;28;20319;-82
2022/01/30 10:10:16;;;;;;;1.40;1.30;;;8.90;86.00;;;;;;5093691;28;20200;-82
2022/01/30 10:13:05;;;;;;;2.20;1.52;;;8.90;85.60;;;;;;5093730;28;20204;-82
2022/01/30 10:15:51;;;;;;;1.45;1.17;;;9.00;85.80;;;;;;5093398;28;20224;-81
2022/01/30 10:18:21;;;;;;;3.05;1.48;;;9.00;85.20;;;;;;5094054;28;20201;-82
2022/01/30 10:20:49;;;;;;;2.13;1.30;;;8.90;84.20;;;;;;5093053;28;20212;-82
2022/01/30 10:23:18;;;;;;;1.42;1.30;;;8.90;84.00;;;;;;5093578;28;20242;-82
2022/01/30 10:25:55;;;;;;;2.47;1.35;;;8.80;83.10;;;;;;5093688;28;20313;-82
2022/01/30 10:28:28;;;;;;;2.35;1.77;;;8.80;83.60;;;;;;5093489;28;20208;-82
2022/01/30 10:30:59;;;;;;;1.30;1.20;;;8.70;83.20;;;;;;5092608;28;20239;-82
2022/01/30 10:33:40;;;;;;;2.38;1.48;;;8.70;82.60;;;;;;5093590;28;20220;-82
2022/01/30 10:36:10;;;;;;;1.83;1.30;;;8.70;83.40;;;;;;5093128;28;20236;-82
2022/01/30 10:38:40;;;;;;;1.48;1.20;;;8.60;84.00;;;;;;5093336;28;20264;-82
2022/01/30 10:41:12;;;;;;;1.55;1.45;;;8.60;84.70;;;;;;5093278;28;20299;-82
2022/01/30 10:43:51;;;;;;;2.38;1.65;;;8.60;83.90;;;;;;5093407;28;20289;-82
2022/01/30 10:46:21;;;;;;;1.83;1.42;;;8.60;84.20;;;;;;5093181;28;20247;-82
2022/01/30 10:48:58;;;;;;;1.48;1.35;;;8.70;84.30;;;;;;5092865;28;20205;-82
2022/01/30 10:51:27;;;;;;;1.48;1.13;;;9.00;81.50;;;;;;5093496;28;20204;-82
2022/01/30 10:53:57;;;;;;;2.50;1.55;;;9.00;80.20;;;;;;5093008;28;20232;-82
2022/01/30 10:56:29;;;;;;;1.85;1.33;;;9.10;80.40;;;;;;5092843;28;20255;-82
2022/01/30 10:59:11;;;;;;;1.77;1.38;;;9.20;78.00;;;;;;5092262;28;20220;-81
2022/01/30 11:01:41;;;;;;;1.05;0.95;;;9.20;78.00;;;;;;5092894;28;20347;-82
2022/01/30 11:04:22;;;;;;;0.93;0.93;;;9.10;77.80;;;;;;5093051;28;20215;-81
2022/01/30 11:06:51;;;;;;;1.50;1.40;;;9.00;78.00;;;;;;5093144;28;20244;-82
2022/01/30 11:09:24;;;;;;;1.38;1.27;;;9.00;77.50;;;;;;5092442;28;20249;-82
2022/01/30 11:12:00;;;;;;;2.20;1.33;;;8.90;77.40;;;;;;5092682;28;20279;-81
2022/01/30 11:14:37;;;;;;;2.15;1.10;;;9.00;80.40;;;;;;5092736;28;20276;-82
2022/01/30 11:17:08;;;;;;;1.20;1.08;;;9.00;78.80;;;;;;5092805;28;20200;-82
2022/01/30 11:19:39;;;;;;;1.52;1.17;;;9.00;78.40;;;;;;5092193;28;20278;-82
2022/01/30 11:22:09;;;;;;;2.42;1.23;;;9.30;78.70;;;;;;5092508;28;20251;-82
2022/01/30 11:24:47;;;;;;;0.90;0.80;;;9.50;77.80;;;;;;5092548;28;20235;-81
2022/01/30 11:27:18;;;;;;;2.25;1.25;;;9.20;78.00;;;;;;5092509;28;20200;-82
2022/01/30 11:29:48;;;;;;;2.85;1.48;;;9.30;79.80;;;;;;5092227;28;20200;-82
2022/01/30 11:32:18;;;;;;;1.38;1.20;;;9.40;78.00;;;;;;5092517;28;20288;-82
2022/01/30 11:34:52;;;;;;;1.17;1.08;;;9.50;78.60;;;;;;5092536;28;20214;-81
2022/01/30 11:37:26;;;;;;;1.20;1.02;;;9.20;77.50;;;;;;5092553;28;20254;-82
2022/01/30 11:39:55;;;;;;;1.48;1.30;;;9.30;77.80;;;;;;5093277;28;20264;-82
2022/01/30 11:42:27;;;;;;;2.97;1.40;;;9.20;78.00;;;;;;5096323;28;20220;-82
2022/01/30 11:45:17;;;;;;;1.70;1.40;;;9.20;78.30;;;;;;5096734;28;20208;-82
2022/01/30 11:48:12;;;;;;;3.25;2.17;;;9.30;77.70;;;;;;5096810;28;20257;-82
2022/01/30 11:50:41;;;;;;;1.77;1.27;;;9.20;77.80;;;;;;5096294;28;20277;-82
2022/01/30 11:53:10;;;;;;;2.53;1.67;;;8.90;77.80;;;;;;5096349;28;20224;-82
2022/01/30 11:55:56;;;;;;;2.50;1.70;;;8.90;78.80;;;;;;5096286;28;20228;-82
2022/01/30 11:58:56;;;;;;;2.20;1.30;;;8.90;80.20;;;;;;5096444;28;20219;-82
2022/01/30 12:01:37;;;;;;;3.45;1.42;;;9.10;79.60;;;;;;5096194;28;20235;-82
2022/01/30 12:04:13;;;;;;;2.58;1.48;;;9.00;80.40;;;;;;5096244;28;20226;-82
2022/01/30 12:06:44;;;;;;;1.65;1.20;;;8.90;80.20;;;;;;5096143;28;20224;-81
2022/01/30 12:09:30;;;;;;;1.17;1.08;;;8.90;80.80;;;;;;5095612;28;20204;-81
2022/01/30 12:12:07;;;;;;;2.78;1.80;;;9.00;78.90;;;;;;5096328;28;20283;-82
2022/01/30 12:14:55;;;;;;;1.65;1.25;;;8.90;79.30;;;;;;5096098;28;20207;-81
2022/01/30 12:17:50;;;;;;;3.45;1.38;;;8.90;79.50;;;;;;5096065;28;20274;-82
2022/01/30 12:20:20;;;;;;;2.60;1.35;;;8.80;80.00;;;;;;5095598;28;20208;-81
2022/01/30 12:22:49;;;;;;;2.58;1.70;;;8.90;80.50;;;;;;5095772;28;20220;-82
2022/01/30 12:25:40;;;;;;;1.20;0.98;;;8.80;80.10;;;;;;5096052;28;20230;-81
2022/01/30 12:28:14;;;;;;;1.77;1.20;;;8.70;81.30;;;;;;5096018;28;20208;-82
2022/01/30 12:30:50;;;;;;;2.65;1.83;;;8.60;80.70;;;;;;5095210;28;20254;-82
2022/01/30 12:33:37;;;;;;;1.75;1.17;;;8.70;80.40;;;;;;5095781;28;20200;-81
2022/01/30 12:36:21;;;;;;;1.60;1.35;;;8.70;79.40;;;;;;5095801;28;20230;-82
2022/01/30 12:38:55;;;;;;;2.28;2.03;;;8.90;80.30;;;;;;5095363;28;20299;-82
2022/01/30 12:41:25;;;;;;;3.58;2.45;;;8.90;80.00;;;;;;5095518;28;20204;-82
2022/01/30 12:44:01;;;;;;;2.72;2.28;;;8.90;79.70;;;;;;5095274;28;20246;-82
2022/01/30 12:46:34;;;;;;;5.85;3.45;;;8.80;79.60;;;;;;5095594;28;20224;-82
2022/01/30 12:49:12;;;;;;;2.85;1.88;;;8.70;81.50;;;;;;5094812;28;20292;-82
2022/01/30 12:51:42;;;;;;;2.22;1.92;;;8.70;81.50;;;;;;5095422;28;20210;-82
2022/01/30 12:54:12;;;;;;;2.42;1.40;;;8.60;81.80;;;;;;5095292;28;20204;-82
2022/01/30 12:56:41;;;;;;;1.30;1.20;;;8.50;80.00;;;;;;5095510;28;20224;-81
2022/01/30 12:59:10;;;;;;;1.50;1.00;;;8.40;79.50;;;;;;5094663;28;20239;-82
2022/01/30 13:01:44;;;;;;;1.55;1.20;;;8.40;80.20;;;;;;5095154;28;20227;-82
2022/01/30 13:04:15;;;;;;;7.82;1.60;;;8.30;81.00;;;;;;5095143;28;20281;-82
2022/01/30 13:06:45;;;;;;;2.60;1.38;;;8.20;81.80;;;;;;5095183;28;20298;-82
2022/01/30 13:09:21;;;;;;;1.40;1.30;;;8.20;81.90;;;;;;5094516;28;20238;-82
2022/01/30 13:11:49;;;;;;;4.90;1.70;;;8.10;81.40;;;;;;5095084;28;20231;-82
2022/01/30 13:14:17;;;;;;;1.48;1.20;;;8.20;82.50;;;;;;5095261;28;20205;-82
2022/01/30 13:16:49;;;;;;;2.08;1.50;;;8.20;80.60;;;;;;5094720;28;20224;-82
2022/01/30 13:19:31;;;;;;;1.75;1.33;;;8.20;80.60;;;;;;5094296;28;20265;-82
2022/01/30 13:22:01;;;;;;;4.50;1.75;;;8.10;81.60;;;;;;5094702;28;20257;-82
2022/01/30 13:24:29;;;;;;;5.18;1.45;;;8.20;81.90;;;;;;5094458;28;20248;-82
2022/01/30 13:26:59;;;;;;;3.13;1.65;;;8.20;83.10;;;;;;5094703;28;20228;-82
2022/01/30 13:29:31;;;;;;;1.27;1.17;;;8.20;83.70;;;;;;5093946;28;20283;-82
2022/01/30 13:32:02;;;;;;;7.28;2.35;;;8.00;83.00;;;;;;5094789;28;20288;-82
2022/01/30 13:34:32;;;;;;;1.58;1.48;;;8.00;83.00;;;;;;5094957;28;20208;-82
2022/01/30 13:37:05;;;;;;;1.20;1.10;;;8.00;83.50;;;;;;5094798;28;20323;-82
2022/01/30 13:39:38;;;;;;;3.20;2.00;;;8.00;83.00;;;;;;5094011;28;20221;-82
2022/01/30 13:48:17;;;;;;;1.92;1.35;;;8.00;83.70;;;;;;5093935;28;20257;-82
2022/01/30 13:50:48;;;;;;;2.55;2.35;;;7.90;83.40;;;;;;5093895;28;20204;-82
2022/01/30 13:53:25;;;;;;;1.83;1.17;;;7.90;85.20;;;;;;5094150;28;20284;-82